Terminal Aerodrome Forecast
Issued by NWS

Home | Current Version | Previous Version | Text Only | Print | Product List | Glossary On
Versions: 1 2 3 4 5 6 7 8 9 10 11 12
000
FTUS42 KMLB 210500
TAFLEE
TAF
KLEE 210531Z 2106/2206 VRB03KT P6SM SCT250
     FM211400 30005KT P6SM FEW040 FEW250
     FM212200 23005KT P6SM SCT040 SCT250
     FM220200 15004KT P6SM FEW060 SCT250=

USA.gov is the U.S. government's official web portal to all federal, state and local government web resources and services.